Springwater, NY (14560)

12:18 PM EST on February 10, 2016 (GMT -0500)
Canadice, New York | | Change Station
CLOSE
Current Station
Personal Weather Station
Location: Springwater, NY
Elevation: 1490 ft
Nearby Weather Stations

Elev 1490 ft 42.68 °N, 77.56 °W | Updated 2 minutes ago

Overcast
Overcast
26.6 °F
Feels Like 20 °F
N
5.8
Wind Variable Wind from West

Today
High -- | Low -- °F
--% Chance of Precip.
Yesterday
High -- | Low -- °F
Precip. -- in
Pressure 29.68 in
Visibility 10.0 miles
Clouds Few 3900 ft
Scattered Clouds 6000 ft
Scattered Clouds 10000 ft
Windchill 20 °F
Dew Point 18 °F
Humidity 70%
Rainfall 0.00 in
Snow Depth Not available.
7:14 AM 5:35 PM
Waxing Crescent, 6% visible
METAR KDSV 101654Z AUTO 28010G18KT 250V340 10SM FEW039 SCT060 SCT100 M01/M09 A2963 RMK AO2 SLP049 T10111094
Pressure 29.68 in
Visibility 10.0 miles
Clouds Few 3900 ft
Scattered Clouds 6000 ft
Scattered Clouds 10000 ft
Windchill 20 °F
Dew Point 18 °F
Humidity 70%
Rainfall 0.00 in
Snow Depth Not available.
7:14 AM 5:35 PM
Waxing Crescent, 6% visible
METAR KDSV 101654Z AUTO 28010G18KT 250V340 10SM FEW039 SCT060 SCT100 M01/M09 A2963 RMK AO2 SLP049 T10111094

10-Day Weather Forecast

Almanac

Astronomy

Feb. 10, 2016 Rise Set
Actual Time
Civil Twilight
Nautical Twilight
Astronomical Twilight
Moon
Length of Visible Light
Length of Day
Tomorrow will be .
, % of the Moon is Illuminated

Today's Extremes

State Highs State Lows

Community

WunderPhotos

Upload Photos

1,891,893 photos uploaded!

WunderBlog® & News

Nearby

Air Quality

  Air Quality AQ Index Pollutant
Not available.

Snow Depth

Station Depth Elevation

Earthquake Activity

City Distance Mag. Time & Date
Minimum magnitude displayed is 2.5.

Coastal Water Temperatures

Place Temperature

Stations

Nearby Weather Stations

Station Location Temp. Windchill Dew Point Humidity Wind Precip. Elev Updated Type
                   

Watches & Warnings

There are currently no watches in effect.